sensor_id;sensor_type;location;lat;lon;timestamp;temperature;humidity
11304;DHT22;5707;49.588;12.148;2023-04-25T00:00:04;4.40;99.90
11304;DHT22;5707;49.588;12.148;2023-04-25T00:02:32;4.50;99.90
11304;DHT22;5707;49.588;12.148;2023-04-25T00:05:00;4.50;99.90
11304;DHT22;5707;49.588;12.148;2023-04-25T00:07:27;4.40;99.90
11304;DHT22;5707;49.588;12.148;2023-04-25T00:09:52;4.50;99.90
11304;DHT22;5707;49.588;12.148;2023-04-25T00:12:18;4.50;99.90
11304;DHT22;5707;49.588;12.148;2023-04-25T00:14:43;4.50;99.90
11304;DHT22;5707;49.588;12.148;2023-04-25T00:17:10;4.50;99.90
11304;DHT22;5707;49.588;12.148;2023-04-25T00:19:36;4.40;99.90
11304;DHT22;5707;49.588;12.148;2023-04-25T00:22:03;4.40;99.90
11304;DHT22;5707;49.588;12.148;2023-04-25T00:24:28;4.40;99.90
11304;DHT22;5707;49.588;12.148;2023-04-25T00:26:54;4.40;99.90
11304;DHT22;5707;49.588;12.148;2023-04-25T00:29:20;4.40;99.90
11304;DHT22;5707;49.588;12.148;2023-04-25T00:31:45;4.50;99.90
11304;DHT22;5707;49.588;12.148;2023-04-25T00:34:11;4.50;99.90
11304;DHT22;5707;49.588;12.148;2023-04-25T00:36:36;4.50;99.90
11304;DHT22;5707;49.588;12.148;2023-04-25T00:39:02;4.50;99.90
11304;DHT22;5707;49.588;12.148;2023-04-25T00:41:29;4.50;99.90
11304;DHT22;5707;49.588;12.148;2023-04-25T00:43:56;4.60;99.90
11304;DHT22;5707;49.588;12.148;2023-04-25T00:46:23;4.60;99.90
11304;DHT22;5707;49.588;12.148;2023-04-25T00:48:48;4.80;99.90
11304;DHT22;5707;49.588;12.148;2023-04-25T00:51:19;4.90;99.90
11304;DHT22;5707;49.588;12.148;2023-04-25T00:53:45;5.10;99.90
11304;DHT22;5707;49.588;12.148;2023-04-25T00:56:10;5.20;99.90
11304;DHT22;5707;49.588;12.148;2023-04-25T00:58:37;5.30;99.90
11304;DHT22;5707;49.588;12.148;2023-04-25T01:01:03;5.30;99.90
11304;DHT22;5707;49.588;12.148;2023-04-25T01:03:31;5.30;99.90
11304;DHT22;5707;49.588;12.148;2023-04-25T01:05:58;5.30;99.90
11304;DHT22;5707;49.588;12.148;2023-04-25T01:08:24;5.20;99.90
11304;DHT22;5707;49.588;12.148;2023-04-25T01:10:52;5.20;99.90
11304;DHT22;5707;49.588;12.148;2023-04-25T01:13:18;5.20;99.90
11304;DHT22;5707;49.588;12.148;2023-04-25T01:15:44;5.20;99.90
11304;DHT22;5707;49.588;12.148;2023-04-25T01:18:09;5.10;99.90
11304;DHT22;5707;49.588;12.148;2023-04-25T01:20:37;4.90;99.90
11304;DHT22;5707;49.588;12.148;2023-04-25T01:23:04;4.90;99.90
11304;DHT22;5707;49.588;12.148;2023-04-25T01:25:32;4.90;99.90
11304;DHT22;5707;49.588;12.148;2023-04-25T01:27:58;4.90;99.90
11304;DHT22;5707;49.588;12.148;2023-04-25T01:30:26;5.00;99.90
11304;DHT22;5707;49.588;12.148;2023-04-25T01:32:53;5.00;99.90
11304;DHT22;5707;49.588;12.148;2023-04-25T01:35:20;5.20;99.90
11304;DHT22;5707;49.588;12.148;2023-04-25T01:37:45;5.30;99.90
11304;DHT22;5707;49.588;12.148;2023-04-25T01:40:11;5.30;99.90
11304;DHT22;5707;49.588;12.148;2023-04-25T01:42:43;5.40;99.90
11304;DHT22;5707;49.588;12.148;2023-04-25T01:45:09;5.40;99.90
11304;DHT22;5707;49.588;12.148;2023-04-25T01:47:36;5.40;99.90
11304;DHT22;5707;49.588;12.148;2023-04-25T01:50:03;5.50;99.90
11304;DHT22;5707;49.588;12.148;2023-04-25T01:52:29;5.50;99.90
11304;DHT22;5707;49.588;12.148;2023-04-25T01:54:57;5.60;99.90
11304;DHT22;5707;49.588;12.148;2023-04-25T01:57:23;5.60;99.90
11304;DHT22;5707;49.588;12.148;2023-04-25T01:59:49;5.60;99.90
11304;DHT22;5707;49.588;12.148;2023-04-25T02:02:15;5.60;99.90
11304;DHT22;5707;49.588;12.148;2023-04-25T02:04:40;5.70;99.90
11304;DHT22;5707;49.588;12.148;2023-04-25T02:07:06;5.70;99.90
11304;DHT22;5707;49.588;12.148;2023-04-25T02:09:32;5.70;99.90
11304;DHT22;5707;49.588;12.148;2023-04-25T02:11:58;5.80;99.90
11304;DHT22;5707;49.588;12.148;2023-04-25T02:14:23;5.80;99.90
11304;DHT22;5707;49.588;12.148;2023-04-25T02:16:49;5.80;99.90
11304;DHT22;5707;49.588;12.148;2023-04-25T02:19:16;5.90;99.90
11304;DHT22;5707;49.588;12.148;2023-04-25T02:21:42;5.90;99.90
11304;DHT22;5707;49.588;12.148;2023-04-25T02:24:08;5.90;99.90
11304;DHT22;5707;49.588;12.148;2023-04-25T02:26:33;6.00;99.90
11304;DHT22;5707;49.588;12.148;2023-04-25T02:28:59;6.00;99.90
11304;DHT22;5707;49.588;12.148;2023-04-25T02:31:25;6.00;99.90
11304;DHT22;5707;49.588;12.148;2023-04-25T02:33:51;6.00;99.90
11304;DHT22;5707;49.588;12.148;2023-04-25T02:36:17;6.00;99.90
11304;DHT22;5707;49.588;12.148;2023-04-25T02:38:42;6.00;99.90
11304;DHT22;5707;49.588;12.148;2023-04-25T02:41:08;6.10;99.90
11304;DHT22;5707;49.588;12.148;2023-04-25T02:43:33;6.10;99.90
11304;DHT22;5707;49.588;12.148;2023-04-25T02:45:59;6.10;99.90
11304;DHT22;5707;49.588;12.148;2023-04-25T02:48:24;6.10;99.90
11304;DHT22;5707;49.588;12.148;2023-04-25T02:50:50;6.10;99.90
11304;DHT22;5707;49.588;12.148;2023-04-25T02:53:15;6.10;99.90
11304;DHT22;5707;49.588;12.148;2023-04-25T02:55:41;6.10;99.90
11304;DHT22;5707;49.588;12.148;2023-04-25T02:58:07;6.10;99.90
11304;DHT22;5707;49.588;12.148;2023-04-25T03:00:32;6.10;99.90
11304;DHT22;5707;49.588;12.148;2023-04-25T03:02:58;6.10;99.90
11304;DHT22;5707;49.588;12.148;2023-04-25T03:05:23;6.10;99.90
11304;DHT22;5707;49.588;12.148;2023-04-25T03:07:49;6.10;99.90
11304;DHT22;5707;49.588;12.148;2023-04-25T03:10:15;6.10;99.90
11304;DHT22;5707;49.588;12.148;2023-04-25T03:12:40;6.10;99.90
11304;DHT22;5707;49.588;12.148;2023-04-25T03:15:06;6.10;99.90
11304;DHT22;5707;49.588;12.148;2023-04-25T03:17:32;6.10;99.90
11304;DHT22;5707;49.588;12.148;2023-04-25T03:19:57;6.10;99.90
11304;DHT22;5707;49.588;12.148;2023-04-25T03:22:23;6.10;99.90
11304;DHT22;5707;49.588;12.148;2023-04-25T03:24:50;6.10;99.90
11304;DHT22;5707;49.588;12.148;2023-04-25T03:27:16;6.20;99.90
11304;DHT22;5707;49.588;12.148;2023-04-25T03:29:41;6.20;99.90
11304;DHT22;5707;49.588;12.148;2023-04-25T03:32:07;6.20;99.90
11304;DHT22;5707;49.588;12.148;2023-04-25T03:34:32;6.20;99.90
11304;DHT22;5707;49.588;12.148;2023-04-25T03:36:58;6.20;99.90
11304;DHT22;5707;49.588;12.148;2023-04-25T03:39:24;6.20;99.90
11304;DHT22;5707;49.588;12.148;2023-04-25T03:41:50;6.20;99.90
11304;DHT22;5707;49.588;12.148;2023-04-25T03:44:15;6.20;99.90
11304;DHT22;5707;49.588;12.148;2023-04-25T03:46:41;6.20;99.90
11304;DHT22;5707;49.588;12.148;2023-04-25T03:49:06;6.10;99.90
11304;DHT22;5707;49.588;12.148;2023-04-25T03:51:32;6.10;99.90
11304;DHT22;5707;49.588;12.148;2023-04-25T03:53:57;6.10;99.90
11304;DHT22;5707;49.588;12.148;2023-04-25T03:56:23;6.10;99.90
11304;DHT22;5707;49.588;12.148;2023-04-25T03:58:49;6.00;99.90
11304;DHT22;5707;49.588;12.148;2023-04-25T04:01:14;6.00;99.90
11304;DHT22;5707;49.588;12.148;2023-04-25T04:03:40;6.00;99.90
11304;DHT22;5707;49.588;12.148;2023-04-25T04:06:06;6.00;99.90
11304;DHT22;5707;49.588;12.148;2023-04-25T04:08:32;6.00;99.90
11304;DHT22;5707;49.588;12.148;2023-04-25T04:10:58;5.90;99.90
11304;DHT22;5707;49.588;12.148;2023-04-25T04:13:26;5.90;99.90
11304;DHT22;5707;49.588;12.148;2023-04-25T04:15:52;5.90;99.90
11304;DHT22;5707;49.588;12.148;2023-04-25T04:18:18;5.80;99.90
11304;DHT22;5707;49.588;12.148;2023-04-25T04:20:44;5.80;99.90
11304;DHT22;5707;49.588;12.148;2023-04-25T04:23:09;5.80;99.90
11304;DHT22;5707;49.588;12.148;2023-04-25T04:25:36;5.70;99.90
11304;DHT22;5707;49.588;12.148;2023-04-25T04:28:02;5.70;99.90
11304;DHT22;5707;49.588;12.148;2023-04-25T04:30:28;5.70;99.90
11304;DHT22;5707;49.588;12.148;2023-04-25T04:32:55;5.70;99.90
11304;DHT22;5707;49.588;12.148;2023-04-25T04:35:21;5.70;99.90
11304;DHT22;5707;49.588;12.148;2023-04-25T04:37:47;5.80;99.90
11304;DHT22;5707;49.588;12.148;2023-04-25T04:40:13;5.90;99.90
11304;DHT22;5707;49.588;12.148;2023-04-25T04:42:41;6.00;99.90
11304;DHT22;5707;49.588;12.148;2023-04-25T04:45:07;6.10;99.90
11304;DHT22;5707;49.588;12.148;2023-04-25T04:47:33;6.20;99.90
11304;DHT22;5707;49.588;12.148;2023-04-25T04:49:59;6.40;99.90
11304;DHT22;5707;49.588;12.148;2023-04-25T04:52:24;6.60;99.90
11304;DHT22;5707;49.588;12.148;2023-04-25T04:54:50;6.60;99.90
11304;DHT22;5707;49.588;12.148;2023-04-25T04:57:16;6.80;99.90
11304;DHT22;5707;49.588;12.148;2023-04-25T04:59:42;6.90;99.90
11304;DHT22;5707;49.588;12.148;2023-04-25T05:02:07;6.90;99.90
11304;DHT22;5707;49.588;12.148;2023-04-25T05:04:33;7.00;99.90
11304;DHT22;5707;49.588;12.148;2023-04-25T05:06:58;7.10;99.90
11304;DHT22;5707;49.588;12.148;2023-04-25T05:09:24;7.20;99.90
11304;DHT22;5707;49.588;12.148;2023-04-25T05:11:51;7.40;99.90
11304;DHT22;5707;49.588;12.148;2023-04-25T05:14:17;7.60;99.90
11304;DHT22;5707;49.588;12.148;2023-04-25T05:16:43;7.70;99.90
11304;DHT22;5707;49.588;12.148;2023-04-25T05:19:09;7.90;99.90
11304;DHT22;5707;49.588;12.148;2023-04-25T05:21:35;8.00;99.90
11304;DHT22;5707;49.588;12.148;2023-04-25T05:24:01;8.00;99.90
11304;DHT22;5707;49.588;12.148;2023-04-25T05:26:27;8.00;99.90
11304;DHT22;5707;49.588;12.148;2023-04-25T05:28:56;8.10;99.90
11304;DHT22;5707;49.588;12.148;2023-04-25T05:31:22;8.40;99.90
11304;DHT22;5707;49.588;12.148;2023-04-25T05:33:48;8.50;99.90
11304;DHT22;5707;49.588;12.148;2023-04-25T05:36:13;8.70;99.90
11304;DHT22;5707;49.588;12.148;2023-04-25T05:38:39;8.70;99.90
11304;DHT22;5707;49.588;12.148;2023-04-25T05:41:04;8.80;99.90
11304;DHT22;5707;49.588;12.148;2023-04-25T05:43:30;8.80;99.90
11304;DHT22;5707;49.588;12.148;2023-04-25T05:45:56;8.80;99.90
11304;DHT22;5707;49.588;12.148;2023-04-25T05:48:21;8.80;99.90
11304;DHT22;5707;49.588;12.148;2023-04-25T05:50:47;8.70;99.90
11304;DHT22;5707;49.588;12.148;2023-04-25T05:53:13;8.60;99.90
11304;DHT22;5707;49.588;12.148;2023-04-25T05:55:38;8.60;99.90
11304;DHT22;5707;49.588;12.148;2023-04-25T05:58:05;8.60;99.90
11304;DHT22;5707;49.588;12.148;2023-04-25T06:00:32;8.50;99.90
11304;DHT22;5707;49.588;12.148;2023-04-25T06:02:58;8.40;99.90
11304;DHT22;5707;49.588;12.148;2023-04-25T06:05:23;8.30;99.90
11304;DHT22;5707;49.588;12.148;2023-04-25T06:07:49;8.40;99.90
11304;DHT22;5707;49.588;12.148;2023-04-25T06:10:14;8.60;99.90
11304;DHT22;5707;49.588;12.148;2023-04-25T06:12:40;8.80;99.90
11304;DHT22;5707;49.588;12.148;2023-04-25T06:15:06;9.00;99.90
11304;DHT22;5707;49.588;12.148;2023-04-25T06:17:33;9.30;99.90
11304;DHT22;5707;49.588;12.148;2023-04-25T06:19:58;9.90;99.90
11304;DHT22;5707;49.588;12.148;2023-04-25T06:22:24;10.60;99.90
11304;DHT22;5707;49.588;12.148;2023-04-25T06:24:49;11.30;99.90
11304;DHT22;5707;49.588;12.148;2023-04-25T06:27:15;11.80;99.90
11304;DHT22;5707;49.588;12.148;2023-04-25T06:29:40;11.60;99.90
11304;DHT22;5707;49.588;12.148;2023-04-25T06:32:06;11.10;99.90
11304;DHT22;5707;49.588;12.148;2023-04-25T06:34:31;10.60;99.90
11304;DHT22;5707;49.588;12.148;2023-04-25T06:36:57;10.30;99.90
11304;DHT22;5707;49.588;12.148;2023-04-25T06:39:22;10.00;99.90
11304;DHT22;5707;49.588;12.148;2023-04-25T06:41:50;9.80;99.90
11304;DHT22;5707;49.588;12.148;2023-04-25T06:44:16;9.60;99.90
11304;DHT22;5707;49.588;12.148;2023-04-25T06:46:42;9.70;99.90
11304;DHT22;5707;49.588;12.148;2023-04-25T06:49:07;9.80;99.90
11304;DHT22;5707;49.588;12.148;2023-04-25T06:51:33;9.80;99.90
11304;DHT22;5707;49.588;12.148;2023-04-25T06:53:58;9.70;99.90
11304;DHT22;5707;49.588;12.148;2023-04-25T06:56:24;9.60;99.90
11304;DHT22;5707;49.588;12.148;2023-04-25T06:58:50;9.60;99.90
11304;DHT22;5707;49.588;12.148;2023-04-25T07:01:15;9.50;99.90
11304;DHT22;5707;49.588;12.148;2023-04-25T07:03:41;9.50;99.90
11304;DHT22;5707;49.588;12.148;2023-04-25T07:06:07;9.50;99.90
11304;DHT22;5707;49.588;12.148;2023-04-25T07:08:32;9.40;99.90
11304;DHT22;5707;49.588;12.148;2023-04-25T07:10:58;9.40;99.90
11304;DHT22;5707;49.588;12.148;2023-04-25T07:13:23;9.70;99.90
11304;DHT22;5707;49.588;12.148;2023-04-25T07:15:49;10.10;99.90
11304;DHT22;5707;49.588;12.148;2023-04-25T07:18:14;10.70;99.90
11304;DHT22;5707;49.588;12.148;2023-04-25T07:20:40;11.30;99.90
11304;DHT22;5707;49.588;12.148;2023-04-25T07:23:06;11.80;99.90
11304;DHT22;5707;49.588;12.148;2023-04-25T07:25:32;12.10;99.90
11304;DHT22;5707;49.588;12.148;2023-04-25T07:27:57;12.00;99.90
11304;DHT22;5707;49.588;12.148;2023-04-25T07:30:23;11.70;99.90
11304;DHT22;5707;49.588;12.148;2023-04-25T07:32:50;11.70;99.90
11304;DHT22;5707;49.588;12.148;2023-04-25T07:35:16;11.60;99.90
11304;DHT22;5707;49.588;12.148;2023-04-25T07:37:42;11.70;99.90
11304;DHT22;5707;49.588;12.148;2023-04-25T07:40:08;11.50;99.90
11304;DHT22;5707;49.588;12.148;2023-04-25T07:42:35;11.00;99.90
11304;DHT22;5707;49.588;12.148;2023-04-25T07:45:01;10.60;99.90
11304;DHT22;5707;49.588;12.148;2023-04-25T07:47:26;10.30;99.90
11304;DHT22;5707;49.588;12.148;2023-04-25T07:49:52;10.00;99.90
11304;DHT22;5707;49.588;12.148;2023-04-25T07:52:18;9.90;99.90
11304;DHT22;5707;49.588;12.148;2023-04-25T07:54:43;9.90;99.90
11304;DHT22;5707;49.588;12.148;2023-04-25T07:57:09;9.90;99.90
11304;DHT22;5707;49.588;12.148;2023-04-25T07:59:35;9.90;99.90
11304;DHT22;5707;49.588;12.148;2023-04-25T08:02:01;10.10;99.90
11304;DHT22;5707;49.588;12.148;2023-04-25T08:04:26;10.30;99.90
11304;DHT22;5707;49.588;12.148;2023-04-25T08:06:52;10.50;99.90
11304;DHT22;5707;49.588;12.148;2023-04-25T08:09:19;10.70;99.90
11304;DHT22;5707;49.588;12.148;2023-04-25T08:11:45;10.90;99.90
11304;DHT22;5707;49.588;12.148;2023-04-25T08:14:11;11.10;99.90
11304;DHT22;5707;49.588;12.148;2023-04-25T08:16:37;11.30;99.90
11304;DHT22;5707;49.588;12.148;2023-04-25T08:19:02;11.40;99.90
11304;DHT22;5707;49.588;12.148;2023-04-25T08:21:28;11.60;99.90
11304;DHT22;5707;49.588;12.148;2023-04-25T08:23:54;11.70;99.90
11304;DHT22;5707;49.588;12.148;2023-04-25T08:26:19;11.80;99.90
11304;DHT22;5707;49.588;12.148;2023-04-25T08:28:46;12.00;99.90
11304;DHT22;5707;49.588;12.148;2023-04-25T08:31:11;12.20;99.90
11304;DHT22;5707;49.588;12.148;2023-04-25T08:33:37;12.30;99.90
11304;DHT22;5707;49.588;12.148;2023-04-25T08:36:03;12.40;99.90
11304;DHT22;5707;49.588;12.148;2023-04-25T08:38:28;12.40;99.90
11304;DHT22;5707;49.588;12.148;2023-04-25T08:40:54;12.50;99.90
11304;DHT22;5707;49.588;12.148;2023-04-25T08:43:23;12.70;99.90
11304;DHT22;5707;49.588;12.148;2023-04-25T08:45:52;13.10;99.90
11304;DHT22;5707;49.588;12.148;2023-04-25T08:48:18;13.60;99.90
11304;DHT22;5707;49.588;12.148;2023-04-25T08:50:52;14.10;99.90
11304;DHT22;5707;49.588;12.148;2023-04-25T08:53:32;14.40;99.90
11304;DHT22;5707;49.588;12.148;2023-04-25T08:56:00;14.60;99.90
11304;DHT22;5707;49.588;12.148;2023-04-25T08:58:27;14.60;99.90
11304;DHT22;5707;49.588;12.148;2023-04-25T09:00:53;14.70;99.90
11304;DHT22;5707;49.588;12.148;2023-04-25T09:03:19;14.70;99.90
11304;DHT22;5707;49.588;12.148;2023-04-25T09:05:44;14.40;99.90
11304;DHT22;5707;49.588;12.148;2023-04-25T09:08:10;13.70;99.90
11304;DHT22;5707;49.588;12.148;2023-04-25T09:10:36;12.90;99.90
11304;DHT22;5707;49.588;12.148;2023-04-25T09:13:11;12.40;99.90
11304;DHT22;5707;49.588;12.148;2023-04-25T09:15:48;11.30;99.90
11304;DHT22;5707;49.588;12.148;2023-04-25T09:18:22;10.80;99.90
11304;DHT22;5707;49.588;12.148;2023-04-25T09:20:48;10.80;99.90
11304;DHT22;5707;49.588;12.148;2023-04-25T09:23:14;11.00;99.90
11304;DHT22;5707;49.588;12.148;2023-04-25T09:25:40;11.30;99.90
11304;DHT22;5707;49.588;12.148;2023-04-25T09:28:07;11.50;99.90
11304;DHT22;5707;49.588;12.148;2023-04-25T09:30:35;11.60;99.90
11304;DHT22;5707;49.588;12.148;2023-04-25T09:33:08;11.80;99.90
11304;DHT22;5707;49.588;12.148;2023-04-25T09:35:39;11.80;99.90
11304;DHT22;5707;49.588;12.148;2023-04-25T09:38:13;11.90;99.90
11304;DHT22;5707;49.588;12.148;2023-04-25T09:40:44;12.20;99.90
11304;DHT22;5707;49.588;12.148;2023-04-25T09:43:29;12.60;99.90
11304;DHT22;5707;49.588;12.148;2023-04-25T09:45:55;13.40;99.90
11304;DHT22;5707;49.588;12.148;2023-04-25T09:48:25;14.30;99.90
11304;DHT22;5707;49.588;12.148;2023-04-25T09:51:03;14.60;99.90
11304;DHT22;5707;49.588;12.148;2023-04-25T09:53:29;14.20;99.90
11304;DHT22;5707;49.588;12.148;2023-04-25T09:55:56;13.80;99.90
11304;DHT22;5707;49.588;12.148;2023-04-25T09:58:24;13.20;99.90
11304;DHT22;5707;49.588;12.148;2023-04-25T10:00:51;12.80;99.90
11304;DHT22;5707;49.588;12.148;2023-04-25T10:03:17;12.60;99.90
11304;DHT22;5707;49.588;12.148;2023-04-25T10:05:43;12.40;99.90
11304;DHT22;5707;49.588;12.148;2023-04-25T10:08:10;12.40;99.90
11304;DHT22;5707;49.588;12.148;2023-04-25T10:10:37;12.50;99.90
11304;DHT22;5707;49.588;12.148;2023-04-25T10:13:08;12.60;99.90
11304;DHT22;5707;49.588;12.148;2023-04-25T10:15:35;12.40;99.90
11304;DHT22;5707;49.588;12.148;2023-04-25T10:18:02;12.00;99.90
11304;DHT22;5707;49.588;12.148;2023-04-25T10:20:28;12.10;99.90
11304;DHT22;5707;49.588;12.148;2023-04-25T10:22:57;12.30;99.90
11304;DHT22;5707;49.588;12.148;2023-04-25T10:25:23;12.80;99.90
11304;DHT22;5707;49.588;12.148;2023-04-25T10:27:53;13.20;99.90
11304;DHT22;5707;49.588;12.148;2023-04-25T10:30:19;13.70;99.90
11304;DHT22;5707;49.588;12.148;2023-04-25T10:32:45;14.10;99.90
11304;DHT22;5707;49.588;12.148;2023-04-25T10:35:16;14.20;99.90
11304;DHT22;5707;49.588;12.148;2023-04-25T10:38:10;14.10;99.90
11304;DHT22;5707;49.588;12.148;2023-04-25T10:40:36;14.30;99.90
11304;DHT22;5707;49.588;12.148;2023-04-25T10:43:33;14.90;99.90
11304;DHT22;5707;49.588;12.148;2023-04-25T10:45:59;15.90;98.30
11304;DHT22;5707;49.588;12.148;2023-04-25T10:48:26;16.50;94.10
11304;DHT22;5707;49.588;12.148;2023-04-25T10:51:11;16.10;94.40
11304;DHT22;5707;49.588;12.148;2023-04-25T10:53:36;15.50;97.20
11304;DHT22;5707;49.588;12.148;2023-04-25T10:56:21;15.00;97.10
11304;DHT22;5707;49.588;12.148;2023-04-25T10:58:48;15.30;97.30
11304;DHT22;5707;49.588;12.148;2023-04-25T11:01:15;15.70;96.60
11304;DHT22;5707;49.588;12.148;2023-04-25T11:03:42;16.30;94.10
11304;DHT22;5707;49.588;12.148;2023-04-25T11:08:53;15.70;94.20
11304;DHT22;5707;49.588;12.148;2023-04-25T11:11:19;15.60;96.80
11304;DHT22;5707;49.588;12.148;2023-04-25T11:13:48;15.50;93.40
11304;DHT22;5707;49.588;12.148;2023-04-25T11:16:15;15.10;94.70
11304;DHT22;5707;49.588;12.148;2023-04-25T11:18:44;14.60;95.80
11304;DHT22;5707;49.588;12.148;2023-04-25T11:21:10;14.40;95.30
11304;DHT22;5707;49.588;12.148;2023-04-25T11:23:36;14.30;95.60
11304;DHT22;5707;49.588;12.148;2023-04-25T11:26:03;14.20;96.90
11304;DHT22;5707;49.588;12.148;2023-04-25T11:28:29;14.40;98.70
11304;DHT22;5707;49.588;12.148;2023-04-25T11:30:55;14.80;94.60
11304;DHT22;5707;49.588;12.148;2023-04-25T11:33:24;14.90;94.30
11304;DHT22;5707;49.588;12.148;2023-04-25T11:35:54;14.70;95.50
11304;DHT22;5707;49.588;12.148;2023-04-25T11:38:22;14.20;94.90
11304;DHT22;5707;49.588;12.148;2023-04-25T11:40:52;14.20;96.80
11304;DHT22;5707;49.588;12.148;2023-04-25T11:43:20;14.60;94.60
11304;DHT22;5707;49.588;12.148;2023-04-25T11:45:49;14.70;96.30
11304;DHT22;5707;49.588;12.148;2023-04-25T11:48:16;14.30;93.60
11304;DHT22;5707;49.588;12.148;2023-04-25T11:50:42;13.50;93.40
11304;DHT22;5707;49.588;12.148;2023-04-25T11:53:08;13.20;94.30
11304;DHT22;5707;49.588;12.148;2023-04-25T11:55:34;13.40;95.30
11304;DHT22;5707;49.588;12.148;2023-04-25T11:58:00;13.90;93.90
11304;DHT22;5707;49.588;12.148;2023-04-25T12:00:26;14.60;92.80
11304;DHT22;5707;49.588;12.148;2023-04-25T12:02:53;15.30;92.80
11304;DHT22;5707;49.588;12.148;2023-04-25T12:05:23;15.60;90.80
11304;DHT22;5707;49.588;12.148;2023-04-25T12:07:48;15.40;90.80
11304;DHT22;5707;49.588;12.148;2023-04-25T12:10:18;14.70;91.80
11304;DHT22;5707;49.588;12.148;2023-04-25T12:12:46;13.90;93.30
11304;DHT22;5707;49.588;12.148;2023-04-25T12:15:13;13.20;95.20
11304;DHT22;5707;49.588;12.148;2023-04-25T12:17:41;13.10;94.20
11304;DHT22;5707;49.588;12.148;2023-04-25T12:20:14;13.50;93.10
11304;DHT22;5707;49.588;12.148;2023-04-25T12:22:42;13.80;93.90
11304;DHT22;5707;49.588;12.148;2023-04-25T12:25:12;14.10;93.60
11304;DHT22;5707;49.588;12.148;2023-04-25T12:27:38;14.40;93.10
11304;DHT22;5707;49.588;12.148;2023-04-25T12:30:07;13.90;93.20
11304;DHT22;5707;49.588;12.148;2023-04-25T12:32:34;12.70;98.10
11304;DHT22;5707;49.588;12.148;2023-04-25T12:35:00;11.80;98.00
11304;DHT22;5707;49.588;12.148;2023-04-25T12:37:26;11.40;99.90
11304;DHT22;5707;49.588;12.148;2023-04-25T12:39:53;11.30;99.90
11304;DHT22;5707;49.588;12.148;2023-04-25T12:42:19;11.50;99.90
11304;DHT22;5707;49.588;12.148;2023-04-25T12:44:45;11.80;98.60
11304;DHT22;5707;49.588;12.148;2023-04-25T12:47:11;12.50;99.90
11304;DHT22;5707;49.588;12.148;2023-04-25T12:49:37;13.30;94.90
11304;DHT22;5707;49.588;12.148;2023-04-25T12:52:02;13.60;93.50
11304;DHT22;5707;49.588;12.148;2023-04-25T12:54:28;13.40;96.30
11304;DHT22;5707;49.588;12.148;2023-04-25T12:56:54;13.30;95.50
11304;DHT22;5707;49.588;12.148;2023-04-25T12:59:20;13.40;94.60
11304;DHT22;5707;49.588;12.148;2023-04-25T13:01:46;13.70;95.60
11304;DHT22;5707;49.588;12.148;2023-04-25T13:04:12;14.00;94.00
11304;DHT22;5707;49.588;12.148;2023-04-25T13:06:37;13.80;92.20
11304;DHT22;5707;49.588;12.148;2023-04-25T13:09:03;13.30;94.10
11304;DHT22;5707;49.588;12.148;2023-04-25T13:11:29;13.30;91.90
11304;DHT22;5707;49.588;12.148;2023-04-25T13:13:56;13.30;90.00
11304;DHT22;5707;49.588;12.148;2023-04-25T13:16:21;13.70;91.00
11304;DHT22;5707;49.588;12.148;2023-04-25T13:18:47;14.50;87.90
11304;DHT22;5707;49.588;12.148;2023-04-25T13:21:13;14.80;89.20
11304;DHT22;5707;49.588;12.148;2023-04-25T13:23:40;14.90;88.00
11304;DHT22;5707;49.588;12.148;2023-04-25T13:26:08;15.10;79.30
11304;DHT22;5707;49.588;12.148;2023-04-25T13:28:33;15.10;78.60
11304;DHT22;5707;49.588;12.148;2023-04-25T13:30:59;15.40;78.90
11304;DHT22;5707;49.588;12.148;2023-04-25T13:33:24;15.50;74.80
11304;DHT22;5707;49.588;12.148;2023-04-25T13:35:51;15.20;62.50
11304;DHT22;5707;49.588;12.148;2023-04-25T13:38:22;14.60;65.60
11304;DHT22;5707;49.588;12.148;2023-04-25T13:40:49;14.80;70.70
11304;DHT22;5707;49.588;12.148;2023-04-25T13:43:14;15.00;70.30
11304;DHT22;5707;49.588;12.148;2023-04-25T13:45:40;14.90;66.40
11304;DHT22;5707;49.588;12.148;2023-04-25T13:48:06;15.00;66.00
11304;DHT22;5707;49.588;12.148;2023-04-25T13:50:32;15.00;68.80
11304;DHT22;5707;49.588;12.148;2023-04-25T13:52:57;15.00;59.70
11304;DHT22;5707;49.588;12.148;2023-04-25T13:55:23;14.50;59.70
11304;DHT22;5707;49.588;12.148;2023-04-25T13:57:48;14.00;65.10
11304;DHT22;5707;49.588;12.148;2023-04-25T14:00:14;13.90;71.30
11304;DHT22;5707;49.588;12.148;2023-04-25T14:02:40;14.00;69.40
11304;DHT22;5707;49.588;12.148;2023-04-25T14:05:05;13.90;67.20
11304;DHT22;5707;49.588;12.148;2023-04-25T14:07:33;13.80;70.00
11304;DHT22;5707;49.588;12.148;2023-04-25T14:10:00;14.00;72.80
11304;DHT22;5707;49.588;12.148;2023-04-25T14:12:26;14.00;72.80
11304;DHT22;5707;49.588;12.148;2023-04-25T14:14:51;14.10;68.60
11304;DHT22;5707;49.588;12.148;2023-04-25T14:17:18;14.20;69.60
11304;DHT22;5707;49.588;12.148;2023-04-25T14:19:44;14.80;69.50
11304;DHT22;5707;49.588;12.148;2023-04-25T14:22:11;15.20;69.30
11304;DHT22;5707;49.588;12.148;2023-04-25T14:24:36;15.50;66.90
11304;DHT22;5707;49.588;12.148;2023-04-25T14:27:02;15.40;70.10
11304;DHT22;5707;49.588;12.148;2023-04-25T14:29:28;15.10;67.80
11304;DHT22;5707;49.588;12.148;2023-04-25T14:31:53;14.90;65.90
11304;DHT22;5707;49.588;12.148;2023-04-25T14:34:19;14.80;71.40
11304;DHT22;5707;49.588;12.148;2023-04-25T14:36:45;14.80;68.40
11304;DHT22;5707;49.588;12.148;2023-04-25T14:39:12;14.90;68.60
11304;DHT22;5707;49.588;12.148;2023-04-25T14:41:39;14.90;70.90
11304;DHT22;5707;49.588;12.148;2023-04-25T14:44:04;15.00;68.70
11304;DHT22;5707;49.588;12.148;2023-04-25T14:46:30;15.10;73.30
11304;DHT22;5707;49.588;12.148;2023-04-25T14:48:56;15.10;66.20
11304;DHT22;5707;49.588;12.148;2023-04-25T14:51:21;15.10;68.10
11304;DHT22;5707;49.588;12.148;2023-04-25T14:53:47;14.90;64.10
11304;DHT22;5707;49.588;12.148;2023-04-25T14:56:12;14.70;63.30
11304;DHT22;5707;49.588;12.148;2023-04-25T14:58:39;14.50;64.90
11304;DHT22;5707;49.588;12.148;2023-04-25T15:01:05;14.50;68.00
11304;DHT22;5707;49.588;12.148;2023-04-25T15:03:32;14.40;69.90
11304;DHT22;5707;49.588;12.148;2023-04-25T15:05:57;14.10;72.80
11304;DHT22;5707;49.588;12.148;2023-04-25T15:08:23;13.80;69.20
11304;DHT22;5707;49.588;12.148;2023-04-25T15:10:49;13.40;70.30
11304;DHT22;5707;49.588;12.148;2023-04-25T15:13:14;12.90;70.30
11304;DHT22;5707;49.588;12.148;2023-04-25T15:15:40;12.40;69.60
11304;DHT22;5707;49.588;12.148;2023-04-25T15:18:06;12.50;77.60
11304;DHT22;5707;49.588;12.148;2023-04-25T15:20:31;12.50;77.10
11304;DHT22;5707;49.588;12.148;2023-04-25T15:22:57;12.50;74.70
11304;DHT22;5707;49.588;12.148;2023-04-25T15:25:23;12.40;73.50
11304;DHT22;5707;49.588;12.148;2023-04-25T15:27:49;12.30;77.50
11304;DHT22;5707;49.588;12.148;2023-04-25T15:30:17;12.10;79.10
11304;DHT22;5707;49.588;12.148;2023-04-25T15:32:45;12.00;80.70
11304;DHT22;5707;49.588;12.148;2023-04-25T15:35:12;11.70;85.80